Time;durP1;ratioP1;P1;durP2;ratioP2;P2;SDS_P1;SDS_P2;PMS_P1;PMS_P2;Temp;Humidity;BMP_temperature;BMP_pressure;BME280_temperature;BME280_humidity;BME280_pressure;Samples;Min_cycle;Max_cycle;Signal;HPM_P1;HPM_P2
2023/08/27 00:00:25;;;;;;;3.95;2.50;;;;;;;-145.00;76.15;72772.31;5075923;28;20048;-80
2023/08/27 00:02:52;;;;;;;6.05;2.85;;;;;;;-145.00;76.02;72764.00;5074331;28;20037;-79
2023/08/27 00:05:18;;;;;;;3.85;2.80;;;;;;;-145.00;76.19;72759.81;5075869;28;20048;-79
2023/08/27 00:07:45;;;;;;;4.20;2.67;;;;;;;-145.00;75.83;72751.50;5075651;28;20048;-79
2023/08/27 00:10:13;;;;;;;3.22;2.60;;;;;;;-145.00;76.09;72741.09;5074588;28;20047;-79
2023/08/27 00:12:41;;;;;;;6.18;2.88;;;;;;;-145.00;76.50;72726.53;5073125;28;20044;-80
2023/08/27 00:15:08;;;;;;;4.68;2.72;;;;;;;-145.00;75.75;72736.94;5074929;28;20044;-79
2023/08/27 00:17:35;;;;;;;5.07;2.55;;;;;;;-145.00;76.06;72739.00;5073216;28;20037;-79
2023/08/27 00:20:06;;;;;;;4.65;2.67;;;;;;;-145.00;76.43;72726.53;5075642;28;20052;-77
2023/08/27 00:22:33;;;;;;;3.80;2.70;;;;;;;-145.00;76.25;72730.69;5075408;28;20051;-80
2023/08/27 00:25:00;;;;;;;5.43;2.78;;;;;;;-145.00;76.25;72722.34;5073855;28;20051;-80
2023/08/27 00:27:26;;;;;;;4.57;2.60;;;;;;;-145.00;75.83;72711.94;5074848;28;20056;-80
2023/08/27 00:29:54;;;;;;;5.93;2.70;;;;;;;-145.00;75.64;72707.78;5073506;28;20047;-79
2023/08/27 00:32:21;;;;;;;5.15;2.90;;;;;;;-145.00;75.58;72705.69;5073650;28;20051;-79
2023/08/27 00:34:47;;;;;;;4.03;2.90;;;;;;;-145.00;75.42;72709.88;5074118;28;20040;-79
2023/08/27 00:37:14;;;;;;;5.28;2.60;;;;;;;-145.00;75.66;72709.88;5074095;28;20048;-79
2023/08/27 00:39:40;;;;;;;4.05;2.80;;;;;;;-145.00;75.70;72705.69;5074006;28;20040;-79
2023/08/27 00:42:07;;;;;;;4.60;2.65;;;;;;;-145.00;76.03;72705.69;5073030;28;20047;-79
2023/08/27 00:44:34;;;;;;;5.10;2.70;;;;;;;-145.00;75.95;72699.47;5073779;28;20052;-79
2023/08/27 00:47:02;;;;;;;4.35;2.60;;;;;;;-145.00;76.25;72701.53;5073168;28;20055;-79
2023/08/27 00:49:29;;;;;;;4.50;2.42;;;;;;;-145.00;76.03;72707.78;5072746;28;20484;-80
2023/08/27 00:51:56;;;;;;;4.45;2.78;;;;;;;-145.00;76.46;72714.03;5072991;28;20074;-80
2023/08/27 00:54:23;;;;;;;3.85;2.67;;;;;;;-145.00;75.73;72705.69;5072176;28;20480;-79
2023/08/27 00:56:50;;;;;;;11.38;3.10;;;;;;;-145.00;75.86;72697.38;5072393;28;20118;-79
2023/08/27 00:59:17;;;;;;;4.13;2.50;;;;;;;-145.00;75.94;72689.06;5071808;28;20548;-79
2023/08/27 01:01:44;;;;;;;4.55;2.97;;;;;;;-145.00;75.97;72689.06;5073007;28;20377;-80
2023/08/27 01:04:13;;;;;;;4.60;2.58;;;;;;;-145.00;75.63;72697.38;5072695;28;20067;-80
2023/08/27 01:06:40;;;;;;;4.03;3.03;;;;;;;-145.00;76.08;72699.47;5073394;28;20044;-79
2023/08/27 01:09:13;;;;;;;6.38;2.65;;;;;;;-145.00;76.01;72689.06;5072446;28;20455;-78
2023/08/27 01:11:53;;;;;;;8.00;2.88;;;;;;;-145.00;75.68;72676.56;5072354;28;20064;-79
2023/08/27 01:14:22;;;;;;;4.03;2.60;;;;;;;-145.00;74.94;72678.63;5072387;28;20400;-79
2023/08/27 01:16:51;;;;;;;3.63;2.15;;;;;;;-145.00;75.49;72659.91;5071811;28;20050;-79
2023/08/27 01:19:21;;;;;;;3.97;2.33;;;;;;;-145.00;75.58;72655.75;5072654;28;20044;-79
2023/08/27 01:21:49;;;;;;;3.75;2.08;;;;;;;-145.00;75.72;72662.00;5071252;28;20051;-78
2023/08/27 01:24:16;;;;;;;4.70;2.10;;;;;;;-145.00;75.35;72664.06;5071783;28;20049;-79
2023/08/27 01:26:48;;;;;;;3.00;2.10;;;;;;;-145.00;75.32;72659.91;5071932;28;21184;-79
2023/08/27 01:29:24;;;;;;;4.00;1.83;;;;;;;-145.00;75.69;72657.81;5073045;28;20047;-80
2023/08/27 01:31:56;;;;;;;3.40;1.92;;;;;;;-145.00;75.44;72666.16;5064658;28;20428;-79
2023/08/27 01:34:25;;;;;;;2.70;2.03;;;;;;;-145.00;75.69;72664.06;5072780;28;20050;-80
2023/08/27 01:36:54;;;;;;;3.92;2.25;;;;;;;-145.00;75.74;72666.16;5064913;28;20041;-79
2023/08/27 01:39:21;;;;;;;3.92;2.15;;;;;;;-145.00;76.12;72672.41;5072458;28;20404;-79
2023/08/27 01:41:47;;;;;;;2.83;1.92;;;;;;;-145.00;75.82;72676.56;5073400;28;20052;-79
2023/08/27 01:44:14;;;;;;;3.13;2.00;;;;;;;-145.00;75.67;72680.72;5072826;28;20048;-80
2023/08/27 01:46:40;;;;;;;3.03;2.00;;;;;;;-145.00;75.81;72684.88;5073197;28;20043;-80
2023/08/27 01:49:07;;;;;;;5.05;2.03;;;;;;;-145.00;76.97;72705.69;5072063;28;20053;-79
2023/08/27 01:51:33;;;;;;;3.08;2.10;;;;;;;-145.00;76.26;72680.72;5073161;28;20412;-79
2023/08/27 01:54:02;;;;;;;5.05;2.50;;;;;;;-145.00;76.71;72691.13;5066386;28;20146;-80
2023/08/27 01:56:28;;;;;;;5.78;2.35;;;;;;;-145.00;76.98;72705.69;5072450;28;20041;-79
2023/08/27 01:58:55;;;;;;;4.95;2.45;;;;;;;-145.00;77.79;72739.00;5078884;28;20044;-80
2023/08/27 02:01:21;;;;;;;4.97;2.42;;;;;;;-145.00;78.34;72745.25;5086353;28;20048;-79
2023/08/27 02:03:48;;;;;;;4.18;2.28;;;;;;;-145.00;78.22;72736.94;5088093;28;20104;-79
2023/08/27 02:06:14;;;;;;;4.18;2.17;;;;;;;-145.00;77.82;72726.53;5083091;28;20045;-79
2023/08/27 02:08:41;;;;;;;4.22;2.35;;;;;;;-145.00;77.87;72711.94;5078324;28;20446;-79
2023/08/27 02:11:09;;;;;;;3.70;2.30;;;;;;;-145.00;78.33;72701.53;5071704;28;20049;-79
2023/08/27 02:13:35;;;;;;;4.93;2.25;;;;;;;-145.00;79.03;72703.63;5071375;28;20048;-79
2023/08/27 02:16:02;;;;;;;5.82;2.22;;;;;;;-145.00;79.34;72707.78;5071123;28;20052;-79
2023/08/27 02:18:29;;;;;;;6.32;2.58;;;;;;;-145.00;79.41;72699.47;5070827;28;20124;-78
2023/08/27 02:20:56;;;;;;;4.70;2.40;;;;;;;-145.00;79.75;72701.53;5070727;28;20523;-79
2023/08/27 02:23:23;;;;;;;7.07;2.80;;;;;;;-145.00;79.98;72705.69;5070327;28;20041;-78
2023/08/27 02:25:49;;;;;;;4.93;2.45;;;;;;;-145.00;80.03;72705.69;5070361;28;20121;-78
2023/08/27 02:28:17;;;;;;;5.70;2.63;;;;;;;-145.00;80.11;72709.88;5070506;28;20040;-78
2023/08/27 02:30:50;;;;;;;4.72;2.58;;;;;;;-145.00;80.64;72705.69;5070547;28;20045;-79
2023/08/27 02:33:17;;;;;;;4.70;2.90;;;;;;;-145.00;81.06;72697.38;5070386;28;20048;-78
2023/08/27 02:35:43;;;;;;;4.35;3.10;;;;;;;-145.00;81.25;72686.97;5071138;28;20042;-79
2023/08/27 02:38:10;;;;;;;5.35;3.00;;;;;;;-145.00;81.38;72684.88;5070413;28;20041;-78
2023/08/27 02:40:36;;;;;;;7.65;3.55;;;;;;;-145.00;81.58;72680.72;5072232;28;20037;-80
2023/08/27 02:43:03;;;;;;;5.82;3.30;;;;;;;-145.00;81.62;72684.88;5071168;28;20514;-79
2023/08/27 02:45:31;;;;;;;5.53;3.60;;;;;;;-145.00;81.52;72695.28;5071505;28;20058;-78
2023/08/27 02:47:57;;;;;;;7.72;4.90;;;;;;;-145.00;81.70;72701.53;5064504;28;20047;-78
2023/08/27 02:50:24;;;;;;;8.93;5.72;;;;;;;-145.00;82.07;72693.22;5071424;28;20527;-78
2023/08/27 02:52:50;;;;;;;10.63;6.22;;;;;;;-145.00;82.49;72684.88;5071583;28;20052;-79
2023/08/27 02:55:17;;;;;;;10.00;7.38;;;;;;;-145.00;82.71;72689.06;5070838;28;20052;-78
2023/08/27 02:57:43;;;;;;;14.82;9.75;;;;;;;-145.00;82.64;72689.06;5071296;28;20048;-79
2023/08/27 03:00:11;;;;;;;14.80;10.77;;;;;;;-145.00;82.43;72709.88;5071147;28;20052;-78
2023/08/27 03:02:39;;;;;;;16.45;11.60;;;;;;;-145.00;82.22;72718.19;5071674;28;20068;-79
2023/08/27 03:05:06;;;;;;;16.65;11.52;;;;;;;-145.00;82.55;72730.69;5071634;28;20043;-80
2023/08/27 03:07:32;;;;;;;15.65;11.32;;;;;;;-145.00;83.13;72753.59;5072170;28;20041;-79
2023/08/27 03:09:59;;;;;;;18.40;12.43;;;;;;;-145.00;83.64;72778.56;5073538;28;20036;-79
2023/08/27 03:12:25;;;;;;;18.27;11.85;;;;;;;-145.00;84.00;72768.16;5077038;28;20506;-78
2023/08/27 03:14:52;;;;;;;15.88;11.43;;;;;;;-145.00;83.55;72755.66;5077772;28;20045;-79
2023/08/27 03:17:19;;;;;;;23.63;13.40;;;;;;;-145.00;83.81;72776.47;5076287;28;20047;-79
2023/08/27 03:19:47;;;;;;;21.35;13.80;;;;;;;-145.00;83.84;72780.66;5075751;28;20051;-78
2023/08/27 03:22:14;;;;;;;19.08;12.48;;;;;;;-145.00;83.84;72772.31;5077797;28;20051;-79
2023/08/27 03:24:40;;;;;;;24.45;15.23;;;;;;;-145.00;84.32;72797.31;5079991;28;20419;-78
2023/08/27 03:27:07;;;;;;;24.45;15.13;;;;;;;-145.00;86.43;72830.59;5078253;28;20052;-78
2023/08/27 03:29:34;;;;;;;21.67;14.10;;;;;;;-145.00;87.42;72836.84;5079067;28;20407;-78
2023/08/27 03:32:00;;;;;;;26.70;15.25;;;;;;;-145.00;87.20;72838.94;5073430;28;20052;-78
2023/08/27 03:34:27;;;;;;;23.05;13.73;;;;;;;-145.00;87.59;72843.09;5080670;28;20451;-79
2023/08/27 03:36:55;;;;;;;21.13;12.73;;;;;;;-145.00;86.70;72809.78;5078087;28;20040;-79
2023/08/27 03:39:21;;;;;;;22.65;13.40;;;;;;;-145.00;87.68;72838.94;5076963;28;20054;-79
2023/08/27 03:41:48;;;;;;;19.75;11.65;;;;;;;-145.00;87.63;72830.59;5077656;28;20535;-79
2023/08/27 03:44:15;;;;;;;13.73;8.20;;;;;;;-145.00;86.60;72809.78;5078556;28;20048;-79
2023/08/27 03:46:42;;;;;;;12.73;7.75;;;;;;;-145.00;85.80;72799.38;5079292;28;20492;-79
2023/08/27 03:49:09;;;;;;;16.45;7.88;;;;;;;-145.00;85.76;72818.13;5077897;28;20044;-79
2023/08/27 03:51:35;;;;;;;11.00;7.28;;;;;;;-145.00;86.47;72822.28;5075757;28;20044;-79
2023/08/27 03:54:03;;;;;;;9.07;6.72;;;;;;;-145.00;87.51;72843.09;5067392;28;20048;-75
2023/08/27 03:56:30;;;;;;;10.00;6.03;;;;;;;-145.00;86.74;72809.78;5075201;28;20068;-79
2023/08/27 03:58:56;;;;;;;6.70;4.95;;;;;;;-145.00;85.88;72784.81;5075431;28;20044;-79
2023/08/27 04:01:25;;;;;;;8.32;5.70;;;;;;;-145.00;85.17;72780.66;5076168;28;20056;-80
2023/08/27 04:03:53;;;;;;;12.73;5.93;;;;;;;-145.00;84.74;72788.97;5076904;28;20049;-79
2023/08/27 04:06:20;;;;;;;10.90;5.97;;;;;;;-145.00;84.65;72795.22;5075808;28;20049;-80
2023/08/27 04:08:46;;;;;;;9.07;5.68;;;;;;;-145.00;84.84;72786.88;5076191;28;20101;-79
2023/08/27 04:11:14;;;;;;;8.63;6.00;;;;;;;-145.00;85.17;72776.47;5073094;28;20045;-80
2023/08/27 04:13:40;;;;;;;9.38;5.82;;;;;;;-145.00;85.90;72795.22;5072852;28;20047;-79
2023/08/27 04:16:09;;;;;;;10.82;7.03;;;;;;;-145.00;86.28;72793.13;5072252;28;20447;-78
2023/08/27 04:18:35;;;;;;;9.82;5.95;;;;;;;-145.00;86.69;72793.13;5072282;28;20492;-78
2023/08/27 04:21:03;;;;;;;10.65;6.32;;;;;;;-145.00;85.95;72778.56;5071444;28;20420;-77
2023/08/27 04:23:30;;;;;;;9.00;6.47;;;;;;;-145.00;85.60;72772.31;5072132;28;20045;-79
2023/08/27 04:25:56;;;;;;;11.02;6.72;;;;;;;-145.00;85.36;72764.00;5071433;28;20041;-77
2023/08/27 04:28:24;;;;;;;11.80;7.10;;;;;;;-145.00;85.52;72774.41;5071411;28;20052;-79
2023/08/27 04:30:51;;;;;;;10.73;6.93;;;;;;;-145.00;85.76;72770.25;5070970;28;20041;-78
2023/08/27 04:33:18;;;;;;;11.27;7.18;;;;;;;-145.00;85.09;72761.91;5070889;28;20045;-79
2023/08/27 04:35:49;;;;;;;9.02;6.72;;;;;;;-145.00;84.34;72768.16;5071471;28;20049;-80
2023/08/27 04:38:16;;;;;;;11.55;6.22;;;;;;;-145.00;84.14;72772.31;5071362;28;20563;-79
2023/08/27 04:40:43;;;;;;;10.38;6.47;;;;;;;-145.00;85.86;72805.63;5071340;28;20047;-78
2023/08/27 04:43:09;;;;;;;10.45;5.63;;;;;;;-145.00;86.59;72813.94;5070192;28;20044;-79
2023/08/27 04:45:37;;;;;;;9.27;5.70;;;;;;;-145.00;86.09;72793.13;5070930;28;20052;-78
2023/08/27 04:48:04;;;;;;;6.82;4.80;;;;;;;-145.00;85.61;72793.13;5071065;28;20492;-79
2023/08/27 04:50:31;;;;;;;8.40;4.88;;;;;;;-145.00;85.56;72784.81;5071411;28;20040;-80
2023/08/27 04:52:57;;;;;;;8.18;5.50;;;;;;;-145.00;85.57;72788.97;5071322;28;20048;-79
2023/08/27 04:55:24;;;;;;;8.55;5.10;;;;;;;-145.00;85.66;72788.97;5070618;28;20047;-80
2023/08/27 04:57:50;;;;;;;10.73;6.60;;;;;;;-145.00;85.74;72822.28;5070875;28;20049;-78
2023/08/27 05:00:20;;;;;;;9.35;5.45;;;;;;;-145.00;86.45;72824.38;5070159;28;20531;-79
2023/08/27 05:02:48;;;;;;;10.70;5.85;;;;;;;-145.00;85.73;72809.78;5070779;28;20051;-79
2023/08/27 05:05:15;;;;;;;9.07;5.47;;;;;;;-145.00;85.18;72805.63;5070306;28;20040;-79
2023/08/27 05:07:41;;;;;;;11.07;6.97;;;;;;;-145.00;85.24;72795.22;5070443;28;20052;-79
2023/08/27 05:10:08;;;;;;;10.52;6.47;;;;;;;-145.00;85.39;72788.97;5069978;28;20554;-78
2023/08/27 05:12:35;;;;;;;11.13;6.38;;;;;;;-145.00;84.71;72784.81;5070929;28;20049;-79
2023/08/27 05:15:03;;;;;;;9.73;5.95;;;;;;;-145.00;84.68;72784.81;5069811;28;20057;-78
2023/08/27 05:17:30;;;;;;;10.63;6.32;;;;;;;-145.00;85.16;72772.31;5070053;28;20057;-79
2023/08/27 05:19:58;;;;;;;10.98;7.18;;;;;;;-145.00;86.20;72807.72;5070240;28;20044;-78
2023/08/27 05:22:24;;;;;;;9.93;6.32;;;;;;;-145.00;86.52;72801.47;5070001;28;20044;-79
2023/08/27 05:24:51;;;;;;;9.52;6.28;;;;;;;-145.00;85.94;72793.13;5070118;28;20119;-79
2023/08/27 05:27:18;;;;;;;11.15;5.88;;;;;;;-145.00;86.01;72795.22;5069831;28;20044;-78
2023/08/27 05:29:44;;;;;;;10.13;6.15;;;;;;;-145.00;86.08;72805.63;5069560;28;20047;-79
2023/08/27 05:32:11;;;;;;;11.35;6.90;;;;;;;-145.00;85.83;72786.88;5069316;28;20052;-79
2023/08/27 05:34:37;;;;;;;10.32;6.72;;;;;;;-145.00;85.08;72784.81;5069538;28;20468;-79
2023/08/27 05:37:04;;;;;;;9.20;6.00;;;;;;;-145.00;84.68;72784.81;5069610;28;20048;-78
2023/08/27 05:39:31;;;;;;;10.10;6.32;;;;;;;-145.00;85.45;72797.31;5069577;28;20420;-78
2023/08/27 05:41:57;;;;;;;10.00;5.88;;;;;;;-145.00;85.80;72786.88;5069756;28;20041;-79
2023/08/27 05:44:24;;;;;;;9.25;5.85;;;;;;;-145.00;85.40;72784.81;5069459;28;20492;-78
2023/08/27 05:46:50;;;;;;;10.13;5.95;;;;;;;-145.00;85.41;72780.66;5069806;28;20048;-78
2023/08/27 05:49:16;;;;;;;11.32;6.35;;;;;;;-145.00;85.91;72788.97;5069434;28;20032;-79
2023/08/27 05:51:43;;;;;;;8.75;6.00;;;;;;;-145.00;85.86;72784.81;5069445;28;20051;-78
2023/08/27 05:54:11;;;;;;;8.80;5.55;;;;;;;-145.00;85.68;72788.97;5069213;28;20048;-79
2023/08/27 05:56:37;;;;;;;11.23;6.00;;;;;;;-145.00;84.97;72780.66;5069343;28;20058;-78
2023/08/27 05:59:04;;;;;;;9.95;6.03;;;;;;;-145.00;84.34;72784.81;5069016;28;20044;-79
2023/08/27 06:01:31;;;;;;;8.82;6.25;;;;;;;-145.00;84.63;72797.31;5069287;28;20041;-78
2023/08/27 06:03:57;;;;;;;13.57;6.38;;;;;;;-145.00;84.66;72797.31;5069576;28;20047;-79
2023/08/27 06:06:26;;;;;;;11.55;6.07;;;;;;;-145.00;85.32;72797.31;5069051;28;20050;-78
2023/08/27 06:08:52;;;;;;;9.13;5.88;;;;;;;-145.00;85.57;72791.06;5069678;28;20052;-79
2023/08/27 06:11:20;;;;;;;10.63;6.32;;;;;;;-145.00;84.60;72801.47;5069153;28;20037;-78
2023/08/27 06:13:46;;;;;;;8.45;5.68;;;;;;;-145.00;84.36;72805.63;5069391;28;20056;-78
2023/08/27 06:16:13;;;;;;;9.73;5.45;;;;;;;-145.00;84.76;72809.78;5068583;28;20493;-78
2023/08/27 06:18:39;;;;;;;10.85;5.70;;;;;;;-145.00;84.91;72826.44;5069725;28;20056;-78
2023/08/27 06:21:06;;;;;;;9.18;4.50;;;;;;;-145.00;85.55;72834.78;5069128;28;20045;-78
2023/08/27 06:23:33;;;;;;;9.23;4.78;;;;;;;-145.00;86.11;72830.59;5067000;28;20056;-78
2023/08/27 06:26:03;;;;;;;7.05;4.80;;;;;;;-145.00;86.14;72843.09;5065639;28;20060;-77
2023/08/27 06:28:31;;;;;;;8.15;4.88;;;;;;;-145.00;86.17;72834.78;5067074;28;20098;-78
2023/08/27 06:30:59;;;;;;;7.25;4.50;;;;;;;-145.00;86.50;72838.94;5068139;28;20100;-80
2023/08/27 06:33:25;;;;;;;6.35;4.70;;;;;;;-145.00;86.34;72832.69;5068658;28;20049;-81
2023/08/27 06:35:52;;;;;;;8.38;5.20;;;;;;;-145.00;86.43;72841.00;5066631;28;20041;-79
2023/08/27 06:38:19;;;;;;;8.55;5.88;;;;;;;-145.00;85.78;72824.38;5064363;28;20131;-79
2023/08/27 06:40:45;;;;;;;7.35;5.25;;;;;;;-145.00;85.30;72822.28;5067099;28;20238;-79
2023/08/27 06:43:12;;;;;;;7.32;5.25;;;;;;;-145.00;85.29;72822.28;5067006;28;20443;-80
2023/08/27 06:45:40;;;;;;;8.70;5.22;;;;;;;-145.00;85.00;72824.38;5068058;28;20104;-78
2023/08/27 06:48:08;;;;;;;7.53;5.20;;;;;;;-145.00;84.73;72824.38;5069817;28;20045;-78
2023/08/27 06:50:34;;;;;;;9.63;5.03;;;;;;;-145.00;85.27;72822.28;5070171;28;20140;-77
2023/08/27 06:53:02;;;;;;;9.23;5.45;;;;;;;-145.00;85.18;72818.13;5069783;28;20052;-77
2023/08/27 06:55:28;;;;;;;7.65;4.90;;;;;;;-145.00;84.68;72822.28;5070035;28;20044;-78
2023/08/27 06:57:55;;;;;;;7.90;5.35;;;;;;;-145.00;85.29;72830.59;5070013;28;20052;-78
2023/08/27 07:00:21;;;;;;;7.57;5.30;;;;;;;-145.00;85.32;72830.59;5069245;28;20055;-78
2023/08/27 07:02:49;;;;;;;9.07;4.95;;;;;;;-145.00;85.59;72834.78;5070706;28;20051;-78
2023/08/27 07:05:16;;;;;;;9.43;5.07;;;;;;;-145.00;85.95;72820.19;5069507;28;20060;-78
2023/08/27 07:07:42;;;;;;;7.50;5.10;;;;;;;-145.00;86.01;72818.13;5069838;28;20044;-77
2023/08/27 07:10:10;;;;;;;6.75;4.75;;;;;;;-145.00;85.82;72811.88;5069009;28;20747;-77
2023/08/27 07:12:37;;;;;;;8.75;5.22;;;;;;;-145.00;85.94;72805.63;5069289;28;20094;-78
2023/08/27 07:15:04;;;;;;;7.57;4.85;;;;;;;-145.00;86.28;72793.13;5068759;28;20048;-76
2023/08/27 07:17:33;;;;;;;6.85;5.03;;;;;;;-145.00;86.30;72791.06;5069466;28;20056;-77
2023/08/27 07:20:01;;;;;;;7.80;4.60;;;;;;;-145.00;86.25;72799.38;5069604;28;20051;-77
2023/08/27 07:22:27;;;;;;;6.88;5.10;;;;;;;-145.00;86.37;72795.22;5069448;28;20158;-77
2023/08/27 07:24:54;;;;;;;6.68;4.57;;;;;;;-145.00;86.31;72795.22;5069081;28;20048;-77
2023/08/27 07:27:20;;;;;;;6.63;4.25;;;;;;;-145.00;86.25;72788.97;5068888;28;20088;-77
2023/08/27 07:29:47;;;;;;;6.32;4.55;;;;;;;-145.00;86.55;72780.66;5069187;28;20131;-77
2023/08/27 07:32:13;;;;;;;5.88;4.38;;;;;;;-145.00;86.56;72780.66;5068899;28;20052;-77
2023/08/27 07:34:40;;;;;;;5.57;4.18;;;;;;;-145.00;86.85;72788.97;5069179;28;20048;-77
2023/08/27 07:37:08;;;;;;;4.97;3.50;;;;;;;-145.00;86.41;72795.22;5068729;28;20049;-78
2023/08/27 07:39:35;;;;;;;6.57;3.55;;;;;;;-145.00;86.44;72799.38;5069397;28;20047;-76
2023/08/27 07:42:02;;;;;;;4.78;3.50;;;;;;;-145.00;86.90;72801.47;5077362;28;20059;-80
2023/08/27 07:44:29;;;;;;;5.88;3.75;;;;;;;-145.00;86.47;72797.31;5083060;28;20051;-80
2023/08/27 07:46:55;;;;;;;5.00;3.60;;;;;;;-145.00;86.22;72793.13;5088716;28;20076;-79
2023/08/27 07:49:22;;;;;;;4.82;3.75;;;;;;;-145.00;85.95;72793.13;5083978;28;20057;-80
2023/08/27 07:51:48;;;;;;;5.03;3.70;;;;;;;-145.00;86.07;72801.47;5081841;28;20044;-80
2023/08/27 07:54:16;;;;;;;4.97;3.40;;;;;;;-145.00;86.23;72797.31;5070680;28;20573;-79
2023/08/27 07:56:42;;;;;;;5.25;3.65;;;;;;;-145.00;85.51;72793.13;5069169;28;20055;-78
2023/08/27 07:59:09;;;;;;;4.43;2.63;;;;;;;-145.00;85.25;72788.97;5064689;28;20049;-78
2023/08/27 08:01:35;;;;;;;4.78;2.55;;;;;;;-145.00;86.05;72803.53;5069123;28;20067;-79
2023/08/27 08:04:03;;;;;;;4.55;2.28;;;;;;;-145.00;86.35;72799.38;5068810;28;20131;-77
2023/08/27 08:06:29;;;;;;;4.15;2.70;;;;;;;-145.00;85.66;72784.81;5069689;28;20052;-78
2023/08/27 08:08:55;;;;;;;3.38;2.45;;;;;;;-145.00;85.82;72801.47;5069867;28;20041;-78
2023/08/27 08:11:23;;;;;;;2.95;2.17;;;;;;;-145.00;86.39;72797.31;5068800;28;20059;-78
2023/08/27 08:13:51;;;;;;;3.63;2.22;;;;;;;-145.00;86.85;72847.25;5068444;28;20048;-77
2023/08/27 08:16:17;;;;;;;3.72;2.33;;;;;;;-145.00;87.29;72853.50;5067816;28;20142;-78
2023/08/27 08:18:44;;;;;;;4.32;2.30;;;;;;;-145.00;87.63;72863.91;5069314;28;20044;-78
2023/08/27 08:21:11;;;;;;;4.47;2.50;;;;;;;-145.00;87.85;72859.75;5068285;28;20082;-78
2023/08/27 08:23:37;;;;;;;4.07;2.50;;;;;;;-145.00;88.40;72851.44;5068274;28;20144;-79
2023/08/27 08:26:05;;;;;;;3.45;2.42;;;;;;;-145.00;88.50;72866.00;5068050;28;20052;-76
2023/08/27 08:28:33;;;;;;;3.53;2.60;;;;;;;-145.00;87.93;72868.09;5068804;28;20044;-79
2023/08/27 08:31:00;;;;;;;4.60;2.40;;;;;;;-145.00;88.34;72874.31;5068154;28;20048;-78
2023/08/27 08:33:26;;;;;;;4.60;2.45;;;;;;;-145.00;88.55;72863.91;5068085;28;20052;-78
2023/08/27 08:35:53;;;;;;;4.50;2.60;;;;;;;-145.00;87.67;72847.25;5068019;28;20047;-78
2023/08/27 08:38:19;;;;;;;4.32;2.67;;;;;;;-145.00;87.89;72841.00;5067618;28;20123;-77
2023/08/27 08:40:49;;;;;;;4.72;2.97;;;;;;;-145.00;87.68;72830.59;5067996;28;20492;-76
2023/08/27 08:43:24;;;;;;;4.63;2.70;;;;;;;-145.00;87.02;72805.63;5067414;28;20049;-77
2023/08/27 08:46:02;;;;;;;4.97;2.88;;;;;;;-145.00;86.08;72795.22;5067790;28;20058;-77
2023/08/27 08:48:33;;;;;;;5.72;2.88;;;;;;;-145.00;86.59;72795.22;5067679;28;20044;-79
2023/08/27 08:51:03;;;;;;;5.47;3.08;;;;;;;-145.00;87.12;72855.59;5068197;28;20047;-77
2023/08/27 08:53:32;;;;;;;3.35;2.50;;;;;;;-145.00;87.85;72851.44;5067540;28;20048;-77
2023/08/27 08:56:03;;;;;;;5.22;3.00;;;;;;;-145.00;87.84;72845.19;5068064;28;20049;-79
2023/08/27 08:58:38;;;;;;;5.85;3.25;;;;;;;-145.00;87.51;72830.59;5072704;28;20045;-80
2023/08/27 09:01:06;;;;;;;4.63;3.15;;;;;;;-145.00;88.61;72855.59;5065699;28;20063;-79
2023/08/27 09:03:35;;;;;;;4.82;3.28;;;;;;;-145.00;88.02;72834.78;5067321;28;20044;-78
2023/08/27 09:06:02;;;;;;;5.90;3.40;;;;;;;-145.00;87.73;72832.69;5067141;28;20049;-76
2023/08/27 09:08:31;;;;;;;4.32;3.30;;;;;;;-145.00;88.87;72870.16;5067364;28;20059;-77
2023/08/27 09:10:57;;;;;;;5.40;3.33;;;;;;;-145.00;88.50;72843.09;5068778;28;20149;-77
2023/08/27 09:13:24;;;;;;;6.47;3.80;;;;;;;-145.00;88.22;72855.59;5067823;28;20052;-78
2023/08/27 09:15:51;;;;;;;8.13;2.90;;;;;;;-145.00;88.17;72843.09;5071426;28;20040;-79
2023/08/27 09:18:19;;;;;;;4.97;2.90;;;;;;;-145.00;88.30;72851.44;5070719;28;20048;-78
2023/08/27 09:20:45;;;;;;;4.07;2.80;;;;;;;-145.00;87.57;72813.94;5067848;28;20542;-77
2023/08/27 09:23:13;;;;;;;4.43;2.90;;;;;;;-145.00;86.53;72801.47;5068089;28;20060;-76
2023/08/27 09:25:39;;;;;;;5.22;3.00;;;;;;;-145.00;86.30;72797.31;5067345;28;20400;-77
2023/08/27 09:28:06;;;;;;;5.43;2.88;;;;;;;-145.00;86.97;72809.78;5068653;28;20052;-79
2023/08/27 09:30:33;;;;;;;5.72;2.85;;;;;;;-145.00;87.47;72818.13;5067616;28;20036;-78
2023/08/27 09:33:00;;;;;;;3.28;2.30;;;;;;;-145.00;87.49;72838.94;5067993;28;20054;-78
2023/08/27 09:35:38;;;;;;;4.03;2.67;;;;;;;-145.00;88.86;72868.09;5068393;28;20037;-79
2023/08/27 09:38:04;;;;;;;4.15;2.45;;;;;;;-145.00;89.21;72876.41;5069759;28;20053;-79
2023/08/27 09:40:31;;;;;;;3.88;2.63;;;;;;;-145.00;90.54;72884.72;5068813;28;20071;-79
2023/08/27 09:43:04;;;;;;;4.22;2.70;;;;;;;-145.00;90.80;72888.91;5072107;28;20122;-78
2023/08/27 09:45:31;;;;;;;3.33;2.20;;;;;;;-145.00;90.73;72880.56;5079199;28;20119;-79
2023/08/27 09:47:58;;;;;;;4.63;2.55;;;;;;;-145.00;89.61;72851.44;5072653;28;20044;-79
2023/08/27 09:50:24;;;;;;;3.60;2.42;;;;;;;-145.00;89.01;72853.50;5070195;28;20048;-77
2023/08/27 09:52:52;;;;;;;3.95;2.60;;;;;;;-145.00;89.43;72853.50;5066374;28;20508;-77
2023/08/27 09:55:19;;;;;;;5.55;2.65;;;;;;;-145.00;89.76;72855.59;5066115;28;20048;-77
2023/08/27 09:57:50;;;;;;;5.20;2.80;;;;;;;-145.00;89.47;72836.84;5078860;22;20037;-81
2023/08/27 10:00:18;;;;;;;4.15;2.40;;;;;;;-145.00;88.69;72830.59;5062846;28;20044;-80
2023/08/27 10:02:45;;;;;;;4.78;2.70;;;;;;;-145.00;88.70;72859.75;5059007;28;20048;-80
2023/08/27 10:05:11;;;;;;;4.22;2.90;;;;;;;-145.00;88.66;72845.19;5067285;28;20112;-80
2023/08/27 10:07:38;;;;;;;4.32;2.53;;;;;;;-145.00;86.98;72818.13;5059965;28;20520;-81
2023/08/27 10:10:07;;;;;;;5.43;2.47;;;;;;;-145.00;88.32;72851.44;5062484;28;20044;-80
2023/08/27 10:12:34;;;;;;;4.80;2.63;;;;;;;-145.00;88.77;72876.41;5065278;28;20355;-81
2023/08/27 10:15:04;;;;;;;4.05;2.63;;;;;;;-145.00;88.57;72832.69;5069439;28;20049;-81
2023/08/27 10:17:32;;;;;;;5.03;2.63;;;;;;;-145.00;87.23;72818.13;5076037;28;20052;-81
2023/08/27 10:20:02;;;;;;;3.50;2.42;;;;;;;-145.00;86.31;72807.72;5074516;28;20045;-81
2023/08/27 10:22:29;;;;;;;4.25;2.15;;;;;;;-145.00;86.66;72847.25;5072001;28;20041;-80
2023/08/27 10:24:58;;;;;;;4.00;2.50;;;;;;;-145.00;86.62;72834.78;5077956;28;20032;-80
2023/08/27 10:27:26;;;;;;;3.92;2.20;;;;;;;-145.00;86.56;72830.59;5073464;28;20098;-82
2023/08/27 10:29:54;;;;;;;4.55;2.50;;;;;;;-145.00;87.15;72834.78;5076510;28;20112;-80
2023/08/27 10:32:20;;;;;;;4.65;2.63;;;;;;;-145.00;86.84;72809.78;5053221;28;20044;-78
2023/08/27 10:34:47;;;;;;;4.60;2.90;;;;;;;-145.00;86.16;72799.38;5052225;28;20037;-78
2023/08/27 10:37:15;;;;;;;4.53;2.10;;;;;;;-145.00;85.73;72805.63;5053053;28;20049;-78
2023/08/27 10:39:42;;;;;;;3.63;2.00;;;;;;;-145.00;85.48;72799.38;5053243;28;20451;-77
2023/08/27 10:42:08;;;;;;;4.40;2.10;;;;;;;-145.00;85.34;72797.31;5053262;28;20143;-78
2023/08/27 10:44:36;;;;;;;3.67;2.10;;;;;;;-145.00;85.48;72803.53;5052439;28;20049;-78
2023/08/27 10:47:11;;;;;;;3.03;2.00;;;;;;;-145.00;86.11;72803.53;5052921;28;20044;-78
2023/08/27 10:49:38;;;;;;;3.13;2.05;;;;;;;-145.00;86.36;72797.31;5053706;28;20041;-78
2023/08/27 10:52:27;;;;;;;3.80;1.95;;;;;;;-145.00;86.28;72799.38;5053880;28;20574;-77
2023/08/27 10:55:00;;;;;;;3.58;2.30;;;;;;;-145.00;85.44;72797.31;5053153;28;20128;-77
2023/08/27 10:57:27;;;;;;;4.82;2.53;;;;;;;-145.00;85.10;72795.22;5053314;28;20076;-78
2023/08/27 11:00:07;;;;;;;3.50;1.95;;;;;;;-145.00;86.42;72813.94;5059073;28;20496;-77
2023/08/27 11:02:56;;;;;;;3.13;2.15;;;;;;;-145.00;86.80;72820.19;5046078;28;20037;-78
2023/08/27 11:05:26;;;;;;;3.85;2.35;;;;;;;-145.00;86.43;72841.00;5052001;28;20075;-78
2023/08/27 11:07:53;;;;;;;4.80;2.33;;;;;;;-145.00;86.75;72849.34;5052773;28;20045;-78
2023/08/27 11:10:20;;;;;;;4.57;2.50;;;;;;;-145.00;87.18;72866.00;5052613;28;20045;-78
2023/08/27 11:12:47;;;;;;;4.82;2.75;;;;;;;-145.00;88.42;72897.22;5045435;28;20068;-78
2023/08/27 11:15:16;;;;;;;4.75;3.03;;;;;;;-145.00;89.00;72905.56;5052221;28;20385;-78